Time;durP1;ratioP1;P1;durP2;ratioP2;P2;SDS_P1;SDS_P2;PMS_P1;PMS_P2;Temp;Humidity;BMP_temperature;BMP_pressure;BME280_temperature;BME280_humidity;BME280_pressure;Samples;Min_cycle;Max_cycle;Signal;HPM_P1;HPM_P2
2023/08/03 00:02:05;;;;;;;;;;;17.50;99.90;;;;;;5025380;28;19922;-76
2023/08/03 00:04:33;;;;;;;;;;;17.60;99.90;;;;;;5025257;28;19988;-76
2023/08/03 00:06:59;;;;;;;;;;;17.60;99.90;;;;;;5025056;28;19996;-76
2023/08/03 00:09:26;;;;;;;;;;;17.50;99.90;;;;;;5025054;28;19922;-76
2023/08/03 00:12:00;;;;;;;;;;;17.60;99.90;;;;;;5024749;28;19988;-76
2023/08/03 00:14:26;;;;;;;;;;;17.60;99.90;;;;;;5025371;28;19963;-76
2023/08/03 00:16:53;;;;;;;;;;;17.60;99.90;;;;;;5024517;28;19921;-76
2023/08/03 00:19:19;;;;;;;;;;;17.60;99.90;;;;;;5025068;28;19960;-76
2023/08/03 00:21:47;;;;;;;;;;;17.60;99.90;;;;;;5025136;28;19964;-76
2023/08/03 00:24:14;;;;;;;;;;;17.60;99.90;;;;;;5024907;28;19957;-76
2023/08/03 00:26:59;;;;;;;;;;;17.60;99.90;;;;;;5023767;28;20204;-76
2023/08/03 00:29:25;;;;;;;;;;;17.60;99.90;;;;;;5024756;28;19984;-76
2023/08/03 00:31:52;;;;;;;;;;;17.60;99.90;;;;;;5024920;28;19921;-76
2023/08/03 00:34:19;;;;;;;;;;;17.50;99.90;;;;;;5024774;28;19984;-76
2023/08/03 00:36:53;;;;;;;;;;;17.50;99.90;;;;;;5023991;28;19953;-75
2023/08/03 00:39:19;;;;;;;;;;;17.40;99.90;;;;;;5024579;28;19971;-76
2023/08/03 00:41:46;;;;;;;;;;;17.40;99.90;;;;;;5024766;28;19989;-76
2023/08/03 00:44:13;;;;;;;;;;;17.40;99.90;;;;;;5024485;28;20264;-76
2023/08/03 00:46:39;;;;;;;;;;;17.40;99.90;;;;;;5024315;28;19928;-76
2023/08/03 00:49:06;;;;;;;;;;;17.40;99.90;;;;;;5024348;28;20235;-76
2023/08/03 00:51:33;;;;;;;;;;;17.40;99.90;;;;;;5024604;28;19922;-75
2023/08/03 00:54:07;;;;;;;;;;;17.50;99.90;;;;;;5024600;28;19985;-77
2023/08/03 00:56:33;;;;;;;;;;;17.50;99.90;;;;;;5024049;28;20478;-76
2023/08/03 00:59:00;;;;;;;;;;;17.40;99.90;;;;;;5024309;28;19987;-75
2023/08/03 01:01:27;;;;;;;;;;;17.40;99.90;;;;;;5024243;28;19984;-75
2023/08/03 01:03:55;;;;;;;;;;;17.40;99.90;;;;;;5024198;28;19989;-76
2023/08/03 01:06:21;;;;;;;;;;;17.50;99.90;;;;;;5023927;28;19928;-76
2023/08/03 01:08:49;;;;;;;;;;;17.50;99.90;;;;;;5023632;28;19928;-76
2023/08/03 01:11:16;;;;;;;;;;;17.40;99.90;;;;;;5024290;28;20260;-77
2023/08/03 01:13:43;;;;;;;;;;;17.50;99.90;;;;;;5024171;28;19957;-77
2023/08/03 01:16:11;;;;;;;;;;;17.50;99.90;;;;;;5024113;28;19953;-75
2023/08/03 01:18:37;;;;;;;;;;;17.50;99.90;;;;;;5024334;28;19976;-75
2023/08/03 01:21:05;;;;;;;;;;;17.50;99.90;;;;;;5024071;28;19992;-76
2023/08/03 01:23:33;;;;;;;;;;;17.50;99.90;;;;;;5024299;28;20154;-77
2023/08/03 01:26:00;;;;;;;;;;;17.50;99.90;;;;;;5023845;28;19922;-77
2023/08/03 01:28:30;;;;;;;;;;;17.50;99.90;;;;;;5024204;28;19921;-76
2023/08/03 01:31:00;;;;;;;;;;;17.50;99.90;;;;;;5023745;28;19984;-76
2023/08/03 01:33:27;;;;;;;;;;;17.50;99.90;;;;;;5023849;28;20261;-75
2023/08/03 01:35:54;;;;;;;;;;;17.60;99.90;;;;;;5023933;28;19928;-75
2023/08/03 01:38:23;;;;;;;;;;;17.60;99.90;;;;;;5024017;28;19921;-76
2023/08/03 01:40:54;;;;;;;;;;;17.50;99.90;;;;;;5023947;28;19956;-76
2023/08/03 01:43:22;;;;;;;;;;;17.50;99.90;;;;;;5004366;28;19922;-75
2023/08/03 01:45:48;;;;;;;;;;;17.50;99.90;;;;;;5004130;28;19922;-77
2023/08/03 01:48:15;;;;;;;;;;;17.40;99.90;;;;;;5004014;28;20120;-75
2023/08/03 01:50:44;;;;;;;;;;;17.40;99.90;;;;;;5004306;28;19922;-76
2023/08/03 01:53:13;;;;;;;;;;;17.40;99.90;;;;;;5007269;28;19981;-75
2023/08/03 01:55:39;;;;;;;;;;;17.40;99.90;;;;;;5023567;28;19921;-76
2023/08/03 01:58:07;;;;;;;;;;;17.40;99.90;;;;;;5023782;28;19922;-76
2023/08/03 02:00:34;;;;;;;;;;;17.40;99.90;;;;;;5023517;28;19984;-76
2023/08/03 02:03:01;;;;;;;;;;;17.40;99.90;;;;;;5023860;28;19989;-75
2023/08/03 02:05:27;;;;;;;;;;;17.30;99.90;;;;;;5023802;28;19921;-76
2023/08/03 02:07:54;;;;;;;;;;;17.30;99.90;;;;;;5023360;28;20235;-77
2023/08/03 02:10:22;;;;;;;;;;;17.30;99.90;;;;;;5023617;28;19922;-77
2023/08/03 02:12:49;;;;;;;;;;;17.20;99.90;;;;;;5023440;28;19949;-77
2023/08/03 02:15:17;;;;;;;;;;;17.30;99.90;;;;;;5023198;28;20280;-76
2023/08/03 02:17:44;;;;;;;;;;;17.20;99.90;;;;;;5023065;28;19967;-76
2023/08/03 02:20:13;;;;;;;;;;;17.20;99.90;;;;;;5024107;28;20128;-77
2023/08/03 02:22:40;;;;;;;;;;;17.20;99.90;;;;;;5008279;28;19972;-76
2023/08/03 02:25:13;;;;;;;;;;;17.10;99.90;;;;;;5007709;28;19953;-76
2023/08/03 02:27:40;;;;;;;;;;;17.10;99.90;;;;;;5007428;28;19984;-76
2023/08/03 02:30:09;;;;;;;;;;;17.10;99.90;;;;;;5007313;28;20228;-77
2023/08/03 02:35:43;;;;;;;;;;;17.00;99.90;;;;;;5025952;28;19977;-73
2023/08/03 02:38:10;;;;;;;;;;;17.00;99.90;;;;;;5026997;28;20181;-73
2023/08/03 02:40:36;;;;;;;;;;;17.00;99.90;;;;;;5027157;28;19984;-73
2023/08/03 02:46:06;;;;;;;;;;;17.10;99.90;;;;;;5026437;28;19963;-73
2023/08/03 02:48:32;;;;;;;;;;;17.00;99.90;;;;;;5026851;28;20052;-73
2023/08/03 02:51:03;;;;;;;;;;;17.00;99.90;;;;;;4996011;28;19922;-74
2023/08/03 02:53:40;;;;;;;;;;;17.00;99.90;;;;;;4987552;28;19957;-72
2023/08/03 03:08:21;;;;;;;;;;;17.00;99.90;;;;;;4988440;28;19917;-73
2023/08/03 03:10:47;;;;;;;;;;;17.00;99.90;;;;;;5006741;28;19964;-73
2023/08/03 03:13:14;;;;;;;;;;;17.00;99.90;;;;;;5006464;28;19953;-73
2023/08/03 03:15:41;;;;;;;;;;;17.00;99.90;;;;;;5006359;28;20227;-73
2023/08/03 03:18:07;;;;;;;;;;;17.00;99.90;;;;;;5006420;28;20205;-73
2023/08/03 03:20:34;;;;;;;;;;;17.00;99.90;;;;;;5006601;28;19922;-73
2023/08/03 03:23:00;;;;;;;;;;;16.90;99.90;;;;;;5006618;28;20162;-73
2023/08/03 03:25:28;;;;;;;;;;;16.90;99.90;;;;;;5006251;28;19985;-73
2023/08/03 03:27:55;;;;;;;;;;;16.90;99.90;;;;;;5006331;28;19957;-73
2023/08/03 03:30:22;;;;;;;;;;;16.90;99.90;;;;;;5006004;28;19957;-73
2023/08/03 03:32:48;;;;;;;;;;;16.90;99.90;;;;;;5004943;28;19928;-73
2023/08/03 03:35:18;;;;;;;;;;;16.90;99.90;;;;;;5005600;28;20263;-73
2023/08/03 03:37:45;;;;;;;;;;;16.90;99.90;;;;;;5006152;28;19989;-73
2023/08/03 03:40:12;;;;;;;;;;;16.90;99.90;;;;;;5006278;28;19996;-73
2023/08/03 03:42:40;;;;;;;;;;;16.80;99.90;;;;;;5006186;28;19983;-73
2023/08/03 03:45:07;;;;;;;;;;;16.90;99.90;;;;;;4986697;28;19960;-73
2023/08/03 03:47:33;;;;;;;;;;;16.90;99.90;;;;;;4986572;28;19964;-73
2023/08/03 03:50:00;;;;;;;;;;;16.90;99.90;;;;;;4986669;28;19994;-73
2023/08/03 03:52:27;;;;;;;;;;;16.90;99.90;;;;;;4986573;28;19922;-73
2023/08/03 03:54:53;;;;;;;;;;;16.90;99.90;;;;;;4986139;28;19997;-73
2023/08/03 03:57:20;;;;;;;;;;;16.90;99.90;;;;;;4986322;28;19922;-73
2023/08/03 03:59:48;;;;;;;;;;;16.90;99.90;;;;;;4985926;28;19926;-72
2023/08/03 04:02:14;;;;;;;;;;;16.90;99.90;;;;;;4986233;28;19994;-73
2023/08/03 04:04:41;;;;;;;;;;;17.00;99.90;;;;;;4986203;28;19949;-73
2023/08/03 04:07:08;;;;;;;;;;;16.90;99.90;;;;;;4986081;28;19929;-73
2023/08/03 04:09:34;;;;;;;;;;;16.90;99.90;;;;;;4986135;28;19922;-72
2023/08/03 04:12:01;;;;;;;;;;;16.90;99.90;;;;;;4986035;28;19922;-73
2023/08/03 04:14:28;;;;;;;;;;;16.90;99.90;;;;;;4986152;28;19928;-73
2023/08/03 04:16:56;;;;;;;;;;;16.90;99.90;;;;;;4985763;28;19983;-70
2023/08/03 04:19:22;;;;;;;;;;;16.90;99.90;;;;;;4991394;28;20296;-70
2023/08/03 04:21:49;;;;;;;;;;;16.90;99.90;;;;;;5005397;28;19989;-70
2023/08/03 04:24:15;;;;;;;;;;;16.90;99.90;;;;;;5003018;28;20119;-71
2023/08/03 04:26:42;;;;;;;;;;;16.90;99.90;;;;;;4985644;28;19985;-70
2023/08/03 04:29:09;;;;;;;;;;;17.00;99.90;;;;;;4985697;28;19922;-70
2023/08/03 04:31:35;;;;;;;;;;;17.00;99.90;;;;;;4985263;28;19985;-71
2023/08/03 04:34:03;;;;;;;;;;;17.00;99.90;;;;;;4985540;28;19922;-70
2023/08/03 04:36:30;;;;;;;;;;;17.00;99.90;;;;;;5004526;28;19978;-70
2023/08/03 04:38:56;;;;;;;;;;;17.00;99.90;;;;;;5005068;28;19925;-70
2023/08/03 04:41:23;;;;;;;;;;;17.00;99.90;;;;;;5005169;28;20120;-71
2023/08/03 04:43:50;;;;;;;;;;;16.90;99.90;;;;;;5003292;28;19953;-71
2023/08/03 04:46:16;;;;;;;;;;;16.90;99.90;;;;;;5004826;28;19981;-71
2023/08/03 04:48:43;;;;;;;;;;;16.80;99.90;;;;;;5004500;28;19989;-70
2023/08/03 04:51:11;;;;;;;;;;;16.80;99.90;;;;;;5004994;28;19929;-71
2023/08/03 04:53:37;;;;;;;;;;;16.80;99.90;;;;;;5004729;28;20284;-71
2023/08/03 04:56:05;;;;;;;;;;;16.80;99.90;;;;;;5004737;28;20100;-71
2023/08/03 04:58:32;;;;;;;;;;;16.80;99.90;;;;;;5004717;28;20235;-70
2023/08/03 05:00:58;;;;;;;;;;;16.80;99.90;;;;;;5004774;28;19928;-72
2023/08/03 05:03:25;;;;;;;;;;;16.80;99.90;;;;;;5001764;28;19989;-72
2023/08/03 05:05:51;;;;;;;;;;;16.90;99.90;;;;;;4997781;28;20243;-70
2023/08/03 05:08:25;;;;;;;;;;;16.90;99.90;;;;;;5004592;28;19928;-70
2023/08/03 05:10:52;;;;;;;;;;;17.00;99.90;;;;;;5004615;28;19984;-71
2023/08/03 05:13:19;;;;;;;;;;;17.00;99.90;;;;;;5004332;28;20228;-70
2023/08/03 05:16:02;;;;;;;;;;;17.10;99.90;;;;;;4984649;28;19929;-70
2023/08/03 05:18:29;;;;;;;;;;;17.10;99.90;;;;;;4983372;28;19961;-70
2023/08/03 05:20:55;;;;;;;;;;;17.20;99.90;;;;;;4985044;28;19944;-71
2023/08/03 05:23:22;;;;;;;;;;;17.20;99.90;;;;;;4984879;28;20336;-70
2023/08/03 05:25:54;;;;;;;;;;;17.20;99.90;;;;;;4984682;28;19953;-70
2023/08/03 05:28:21;;;;;;;;;;;17.30;99.90;;;;;;4985001;28;19922;-71
2023/08/03 05:30:47;;;;;;;;;;;17.30;99.90;;;;;;4984712;28;19953;-70
2023/08/03 05:33:14;;;;;;;;;;;17.20;99.90;;;;;;4984654;28;19922;-69
2023/08/03 05:35:41;;;;;;;;;;;17.20;99.90;;;;;;5003073;28;19922;-71
2023/08/03 05:38:08;;;;;;;;;;;17.30;99.90;;;;;;5004271;28;19921;-72
2023/08/03 05:40:34;;;;;;;;;;;17.20;99.90;;;;;;5004329;28;20109;-71
2023/08/03 05:43:03;;;;;;;;;;;17.30;99.90;;;;;;5004352;28;19921;-72
2023/08/03 05:45:36;;;;;;;;;;;17.40;99.90;;;;;;5004079;28;19921;-71
2023/08/03 05:48:04;;;;;;;;;;;17.40;99.90;;;;;;5004400;28;19921;-71
2023/08/03 05:50:30;;;;;;;;;;;17.40;99.90;;;;;;5004091;28;19988;-71
2023/08/03 05:52:59;;;;;;;;;;;17.50;99.90;;;;;;5003380;28;19956;-71
2023/08/03 05:55:26;;;;;;;;;;;17.50;99.90;;;;;;5005329;28;19953;-71
2023/08/03 05:57:52;;;;;;;;;;;17.60;99.90;;;;;;5007693;28;19985;-71
2023/08/03 06:00:21;;;;;;;;;;;17.60;99.90;;;;;;5008213;28;19922;-71
2023/08/03 06:02:48;;;;;;;;;;;17.60;99.90;;;;;;5007715;28;20205;-70
2023/08/03 06:05:29;;;;;;;;;;;17.60;99.90;;;;;;5007772;28;19930;-71
2023/08/03 06:07:56;;;;;;;;;;;17.70;99.90;;;;;;4994642;28;19960;-71
2023/08/03 06:10:22;;;;;;;;;;;17.70;99.90;;;;;;5007729;28;19953;-71
2023/08/03 06:12:49;;;;;;;;;;;17.80;99.90;;;;;;5007902;28;19988;-71
2023/08/03 06:15:17;;;;;;;;;;;17.80;99.90;;;;;;4994328;28;20284;-71
2023/08/03 06:17:45;;;;;;;;;;;17.80;99.90;;;;;;4987432;28;19922;-71
2023/08/03 06:20:13;;;;;;;;;;;17.90;99.90;;;;;;4988268;28;19964;-71
2023/08/03 06:22:40;;;;;;;;;;;17.90;99.90;;;;;;4987721;28;19922;-71
2023/08/03 06:25:08;;;;;;;;;;;17.80;99.90;;;;;;4987797;28;19962;-72
2023/08/03 06:27:34;;;;;;;;;;;17.80;99.90;;;;;;4987465;28;20117;-71
2023/08/03 06:30:01;;;;;;;;;;;17.80;99.90;;;;;;4987979;28;19929;-71
2023/08/03 06:32:30;;;;;;;;;;;17.80;99.90;;;;;;4987941;28;20168;-71
2023/08/03 06:35:00;;;;;;;;;;;17.80;99.90;;;;;;4987890;28;20178;-71
2023/08/03 06:37:27;;;;;;;;;;;17.90;99.90;;;;;;4987438;28;19985;-70
2023/08/03 06:39:54;;;;;;;;;;;17.90;99.90;;;;;;4987954;28;20009;-70
2023/08/03 06:42:21;;;;;;;;;;;18.00;99.90;;;;;;4987922;28;19944;-70
2023/08/03 06:44:47;;;;;;;;;;;18.00;99.90;;;;;;4987459;28;19922;-71
2023/08/03 06:47:14;;;;;;;;;;;18.00;99.90;;;;;;4987217;28;19922;-71
2023/08/03 06:49:40;;;;;;;;;;;18.00;99.90;;;;;;4987691;28;20010;-71
2023/08/03 06:52:09;;;;;;;;;;;18.00;99.90;;;;;;4987677;28;19984;-70
2023/08/03 06:54:35;;;;;;;;;;;17.90;99.90;;;;;;4987632;28;19994;-70
2023/08/03 06:57:02;;;;;;;;;;;18.00;99.90;;;;;;4986831;28;19921;-70
2023/08/03 06:59:28;;;;;;;;;;;17.90;99.90;;;;;;4987491;28;19922;-72
2023/08/03 07:01:55;;;;;;;;;;;17.90;99.90;;;;;;4987484;28;19922;-73
2023/08/03 07:04:22;;;;;;;;;;;17.90;99.90;;;;;;4987174;28;19922;-74
2023/08/03 07:06:48;;;;;;;;;;;18.00;99.90;;;;;;4985237;28;20264;-73
2023/08/03 07:09:16;;;;;;;;;;;17.90;99.90;;;;;;4987163;28;19989;-74
2023/08/03 07:11:43;;;;;;;;;;;17.90;99.90;;;;;;4987421;28;19989;-73
2023/08/03 07:14:10;;;;;;;;;;;17.90;99.90;;;;;;4987348;28;19922;-74
2023/08/03 07:16:38;;;;;;;;;;;17.90;99.90;;;;;;4986223;28;19989;-73
2023/08/03 07:19:06;;;;;;;;;;;17.80;99.90;;;;;;4987166;28;19929;-74
2023/08/03 07:21:33;;;;;;;;;;;17.80;99.90;;;;;;4987084;28;19946;-74
2023/08/03 07:23:59;;;;;;;;;;;17.80;99.90;;;;;;4987235;28;20280;-73
2023/08/03 07:26:27;;;;;;;;;;;17.80;99.90;;;;;;4986304;28;19953;-74
2023/08/03 07:28:54;;;;;;;;;;;17.70;99.90;;;;;;4987012;28;19960;-74
2023/08/03 07:31:20;;;;;;;;;;;17.70;99.90;;;;;;4986563;28;20276;-73
2023/08/03 07:33:47;;;;;;;;;;;17.70;99.90;;;;;;4987120;28;19989;-73
2023/08/03 07:36:17;;;;;;;;;;;17.60;99.90;;;;;;4986200;28;19944;-71
2023/08/03 07:38:44;;;;;;;;;;;17.60;99.90;;;;;;4995172;28;19926;-71
2023/08/03 07:41:10;;;;;;;;;;;17.60;99.90;;;;;;5006275;28;20164;-71
2023/08/03 07:43:38;;;;;;;;;;;17.60;99.90;;;;;;5006279;28;19993;-70
2023/08/03 07:46:05;;;;;;;;;;;17.60;99.90;;;;;;5005286;28;19960;-73
2023/08/03 07:48:31;;;;;;;;;;;17.70;99.90;;;;;;5006075;28;19922;-71
2023/08/03 07:50:58;;;;;;;;;;;17.70;99.90;;;;;;5005962;28;19989;-71
2023/08/03 07:53:25;;;;;;;;;;;17.70;99.90;;;;;;5005379;28;19928;-72
2023/08/03 07:55:51;;;;;;;;;;;17.60;99.90;;;;;;4999089;28;19922;-71
2023/08/03 07:58:18;;;;;;;;;;;17.50;99.90;;;;;;5005432;28;19922;-71
2023/08/03 08:00:46;;;;;;;;;;;17.60;99.90;;;;;;5005718;28;19922;-72
2023/08/03 08:03:12;;;;;;;;;;;17.60;99.90;;;;;;5006005;28;19949;-71
2023/08/03 08:05:39;;;;;;;;;;;17.70;99.90;;;;;;5005332;28;19921;-71
2023/08/03 08:08:06;;;;;;;;;;;17.80;99.90;;;;;;5005676;28;20112;-72
2023/08/03 08:10:32;;;;;;;;;;;17.80;99.90;;;;;;5005691;28;19980;-74
2023/08/03 08:12:59;;;;;;;;;;;17.90;99.90;;;;;;5005650;28;19922;-73
2023/08/03 08:15:25;;;;;;;;;;;18.00;99.90;;;;;;5005511;28;19929;-72
2023/08/03 08:17:54;;;;;;;;;;;18.10;99.90;;;;;;5004704;28;19953;-74
2023/08/03 08:20:21;;;;;;;;;;;18.30;99.90;;;;;;5005307;28;19964;-74
2023/08/03 08:22:47;;;;;;;;;;;18.40;99.90;;;;;;5005459;28;19928;-71
2023/08/03 08:25:14;;;;;;;;;;;18.40;99.90;;;;;;5005363;28;19980;-73
2023/08/03 08:27:41;;;;;;;;;;;18.40;99.90;;;;;;5004727;28;19923;-75
2023/08/03 08:30:08;;;;;;;;;;;18.30;99.90;;;;;;5005351;28;19985;-74
2023/08/03 08:32:35;;;;;;;;;;;18.30;99.90;;;;;;5004951;28;19980;-72
2023/08/03 08:35:03;;;;;;;;;;;18.20;99.90;;;;;;4992949;28;20117;-74
2023/08/03 08:37:30;;;;;;;;;;;18.20;99.90;;;;;;4985151;28;19997;-73
2023/08/03 08:39:57;;;;;;;;;;;18.30;99.90;;;;;;4985990;28;19976;-74
2023/08/03 08:42:23;;;;;;;;;;;18.40;99.90;;;;;;4985425;28;19989;-74
2023/08/03 08:44:50;;;;;;;;;;;18.50;99.90;;;;;;4985517;28;19922;-73
2023/08/03 08:47:16;;;;;;;;;;;18.60;99.90;;;;;;4984961;28;19929;-72
2023/08/03 08:49:43;;;;;;;;;;;18.70;99.90;;;;;;4985694;28;19957;-74
2023/08/03 08:52:11;;;;;;;;;;;18.70;99.90;;;;;;4985338;28;19958;-73
2023/08/03 08:54:38;;;;;;;;;;;18.80;99.90;;;;;;4985481;28;19985;-74
2023/08/03 08:57:05;;;;;;;;;;;18.70;99.90;;;;;;4984836;28;19953;-72
2023/08/03 08:59:32;;;;;;;;;;;18.70;99.90;;;;;;4985320;28;19926;-73
2023/08/03 09:02:01;;;;;;;;;;;18.70;99.90;;;;;;4985214;28;20022;-73
2023/08/03 09:04:28;;;;;;;;;;;18.70;99.90;;;;;;4985347;28;19957;-73
2023/08/03 09:06:55;;;;;;;;;;;18.70;99.90;;;;;;4984294;28;19985;-74
2023/08/03 09:09:28;;;;;;;;;;;18.70;99.90;;;;;;4986742;28;19989;-73
2023/08/03 09:11:55;;;;;;;;;;;18.70;99.90;;;;;;4989593;28;19929;-71
2023/08/03 09:14:22;;;;;;;;;;;18.70;99.90;;;;;;5000265;28;19961;-71
2023/08/03 09:16:49;;;;;;;;;;;18.70;99.90;;;;;;4984540;28;19964;-70
2023/08/03 09:19:15;;;;;;;;;;;18.80;99.90;;;;;;4996077;28;19928;-71
2023/08/03 09:21:56;;;;;;;;;;;18.90;99.90;;;;;;5004579;28;19988;-70
2023/08/03 09:24:23;;;;;;;;;;;19.00;99.90;;;;;;5004592;28;19957;-70
2023/08/03 09:26:51;;;;;;;;;;;19.00;99.90;;;;;;5003494;28;19957;-71
2023/08/03 09:29:17;;;;;;;;;;;19.10;99.90;;;;;;5004030;28;20209;-72
2023/08/03 09:31:46;;;;;;;;;;;19.10;99.90;;;;;;5003911;28;19964;-71
2023/08/03 09:34:12;;;;;;;;;;;19.10;99.90;;;;;;5004461;28;19957;-72
2023/08/03 09:36:46;;;;;;;;;;;19.20;99.90;;;;;;4984311;28;19922;-71
2023/08/03 09:39:14;;;;;;;;;;;19.20;99.90;;;;;;4984829;28;20206;-70
2023/08/03 09:41:41;;;;;;;;;;;19.20;99.90;;;;;;4984705;28;20225;-71
2023/08/03 09:44:13;;;;;;;;;;;19.30;99.90;;;;;;4984988;28;20166;-71
2023/08/03 09:46:40;;;;;;;;;;;19.30;99.90;;;;;;4984030;28;19945;-71
2023/08/03 09:49:07;;;;;;;;;;;19.50;99.90;;;;;;4984999;28;19958;-71
2023/08/03 09:51:34;;;;;;;;;;;19.60;99.90;;;;;;4984660;28;19953;-71
2023/08/03 09:54:07;;;;;;;;;;;19.60;99.90;;;;;;4984924;28;19928;-70
2023/08/03 09:56:37;;;;;;;;;;;19.70;99.90;;;;;;4984240;28;19968;-70
2023/08/03 09:59:08;;;;;;;;;;;19.80;99.90;;;;;;4993885;28;19928;-73
2023/08/03 10:01:38;;;;;;;;;;;19.90;99.90;;;;;;5004174;28;20000;-74
2023/08/03 10:04:16;;;;;;;;;;;19.90;99.90;;;;;;5001647;28;19922;-73
2023/08/03 10:06:44;;;;;;;;;;;20.00;99.90;;;;;;5003732;28;19922;-74
2023/08/03 10:09:13;;;;;;;;;;;20.00;99.90;;;;;;5004213;28;20090;-74
2023/08/03 10:11:42;;;;;;;;;;;20.10;99.90;;;;;;5004024;28;19929;-73
2023/08/03 10:14:10;;;;;;;;;;;20.10;99.90;;;;;;5004159;28;20152;-74
2023/08/03 10:16:40;;;;;;;;;;;20.20;99.90;;;;;;5003407;28;19922;-73
2023/08/03 10:19:07;;;;;;;;;;;20.20;99.90;;;;;;5004256;28;19922;-73
2023/08/03 10:21:34;;;;;;;;;;;20.20;99.90;;;;;;5003916;28;19965;-71
2023/08/03 10:24:11;;;;;;;;;;;20.00;99.90;;;;;;5004030;28;19957;-72
2023/08/03 10:26:37;;;;;;;;;;;20.00;99.90;;;;;;4995158;28;19960;-71
2023/08/03 10:29:04;;;;;;;;;;;20.10;99.90;;;;;;4984546;28;20155;-71
2023/08/03 10:31:31;;;;;;;;;;;20.20;99.90;;;;;;4984373;28;19922;-70
2023/08/03 10:34:05;;;;;;;;;;;20.20;99.90;;;;;;4984493;28;20000;-72
2023/08/03 10:36:38;;;;;;;;;;;20.40;99.90;;;;;;4983541;28;20209;-71
2023/08/03 10:39:06;;;;;;;;;;;20.50;99.90;;;;;;4993880;28;19945;-71
2023/08/03 10:41:36;;;;;;;;;;;20.60;99.90;;;;;;5004883;28;19928;-71
2023/08/03 10:44:40;;;;;;;;;;;20.60;99.90;;;;;;5004613;28;20209;-71
2023/08/03 10:47:21;;;;;;;;;;;20.60;99.90;;;;;;4995864;28;19960;-71
2023/08/03 10:49:50;;;;;;;;;;;20.50;99.90;;;;;;4987897;28;19922;-70
2023/08/03 10:52:21;;;;;;;;;;;20.50;99.90;;;;;;4987402;28;19922;-71
2023/08/03 10:54:48;;;;;;;;;;;20.50;99.90;;;;;;4987469;28;19928;-71
2023/08/03 10:57:15;;;;;;;;;;;20.50;99.90;;;;;;4987084;28;19965;-71
2023/08/03 10:59:43;;;;;;;;;;;20.30;99.90;;;;;;4999342;28;20162;-71
2023/08/03 11:02:12;;;;;;;;;;;20.30;99.90;;;;;;5004373;28;19929;-71
2023/08/03 11:04:39;;;;;;;;;;;20.30;99.90;;;;;;5006704;28;20260;-70
2023/08/03 11:07:09;;;;;;;;;;;20.30;99.90;;;;;;5006198;28;20201;-70
2023/08/03 11:09:35;;;;;;;;;;;20.30;99.90;;;;;;4996322;28;19953;-71
2023/08/03 11:12:03;;;;;;;;;;;20.30;99.90;;;;;;4987089;28;19922;-71
2023/08/03 11:14:29;;;;;;;;;;;20.30;99.90;;;;;;4987338;28;19953;-71
2023/08/03 11:16:56;;;;;;;;;;;20.40;99.90;;;;;;4986566;28;19985;-71
2023/08/03 11:19:23;;;;;;;;;;;20.50;99.90;;;;;;4986994;28;19985;-70
2023/08/03 11:21:49;;;;;;;;;;;20.70;99.90;;;;;;4986951;28;19965;-71
2023/08/03 11:24:17;;;;;;;;;;;20.80;99.90;;;;;;4987288;28;19922;-70
2023/08/03 11:26:44;;;;;;;;;;;21.00;99.90;;;;;;4986448;28;20154;-71
2023/08/03 11:29:11;;;;;;;;;;;21.20;99.90;;;;;;4987123;28;19922;-71
2023/08/03 11:31:39;;;;;;;;;;;21.40;99.90;;;;;;4986595;28;20225;-71
2023/08/03 11:34:06;;;;;;;;;;;21.40;99.90;;;;;;4986779;28;20185;-72
2023/08/03 11:36:33;;;;;;;;;;;21.30;99.90;;;;;;4990641;28;19964;-72
2023/08/03 11:38:59;;;;;;;;;;;21.40;99.90;;;;;;4991668;28;19922;-70
2023/08/03 11:41:27;;;;;;;;;;;21.40;99.90;;;;;;4986513;28;20142;-72
2023/08/03 11:43:54;;;;;;;;;;;21.40;99.90;;;;;;4986760;28;19922;-71
2023/08/03 11:46:21;;;;;;;;;;;21.20;99.90;;;;;;4985678;28;19922;-72
2023/08/03 11:48:48;;;;;;;;;;;21.10;99.90;;;;;;4986277;28;20222;-71
2023/08/03 11:51:15;;;;;;;;;;;20.90;99.90;;;;;;4986669;28;19922;-71
2023/08/03 11:53:42;;;;;;;;;;;20.80;99.90;;;;;;4985720;28;19990;-72
2023/08/03 11:56:10;;;;;;;;;;;20.80;99.90;;;;;;4986438;28;19930;-72
2023/08/03 11:58:37;;;;;;;;;;;20.90;99.90;;;;;;5005670;28;20236;-71
2023/08/03 12:01:04;;;;;;;;;;;20.90;99.90;;;;;;5005551;28;19945;-71
2023/08/03 12:03:33;;;;;;;;;;;20.80;99.90;;;;;;5003121;28;19925;-72
2023/08/03 12:06:04;;;;;;;;;;;20.80;99.90;;;;;;5005094;28;19967;-72
2023/08/03 12:08:31;;;;;;;;;;;20.80;99.90;;;;;;4986341;28;19926;-72
2023/08/03 12:10:58;;;;;;;;;;;20.80;99.90;;;;;;4986267;28;19960;-72
2023/08/03 12:13:25;;;;;;;;;;;20.80;99.90;;;;;;4985961;28;19953;-72
2023/08/03 12:15:53;;;;;;;;;;;20.90;99.90;;;;;;4985772;28;19950;-72
2023/08/03 12:18:20;;;;;;;;;;;20.90;99.90;;;;;;5003870;28;19989;-72
2023/08/03 12:20:47;;;;;;;;;;;20.90;99.90;;;;;;5005539;28;19960;-72
2023/08/03 12:23:14;;;;;;;;;;;21.00;99.90;;;;;;5002687;28;20384;-72
2023/08/03 12:25:41;;;;;;;;;;;21.00;99.90;;;;;;4985722;28;19929;-72
2023/08/03 12:28:07;;;;;;;;;;;21.00;99.90;;;;;;4985572;28;20146;-72
2023/08/03 12:30:34;;;;;;;;;;;20.90;99.90;;;;;;4985876;28;19922;-73
2023/08/03 12:33:02;;;;;;;;;;;20.90;99.90;;;;;;4985548;28;19926;-73
2023/08/03 12:35:29;;;;;;;;;;;20.80;99.90;;;;;;4988477;28;20000;-73
2023/08/03 12:37:55;;;;;;;;;;;20.70;99.90;;;;;;5004242;28;19993;-71
2023/08/03 12:40:22;;;;;;;;;;;20.70;99.90;;;;;;5005274;28;19922;-72
2023/08/03 12:42:49;;;;;;;;;;;20.80;99.90;;;;;;5005103;28;19968;-72
2023/08/03 12:45:15;;;;;;;;;;;21.00;99.90;;;;;;5003333;28;19922;-71
2023/08/03 12:47:42;;;;;;;;;;;21.20;99.90;;;;;;4984855;28;19960;-71
2023/08/03 12:50:10;;;;;;;;;;;21.40;99.90;;;;;;4985526;28;20014;-72
2023/08/03 12:52:37;;;;;;;;;;;21.60;99.90;;;;;;4985368;28;19989;-72
2023/08/03 12:55:04;;;;;;;;;;;22.00;99.90;;;;;;5000153;28;19922;-73
2023/08/03 12:57:30;;;;;;;;;;;22.30;99.90;;;;;;5004406;28;19922;-73
2023/08/03 12:59:57;;;;;;;;;;;22.30;99.90;;;;;;5004623;28;20301;-72
2023/08/03 13:02:24;;;;;;;;;;;22.30;99.90;;;;;;5004592;28;19922;-72
2023/08/03 13:04:52;;;;;;;;;;;22.30;99.90;;;;;;5002785;28;19952;-71
2023/08/03 13:07:20;;;;;;;;;;;22.30;99.90;;;;;;4984587;28;20081;-71
2023/08/03 13:09:46;;;;;;;;;;;22.20;99.90;;;;;;4984912;28;19930;-72
2023/08/03 13:12:14;;;;;;;;;;;22.30;99.90;;;;;;4984992;28;19989;-71
2023/08/03 13:14:41;;;;;;;;;;;22.40;99.90;;;;;;4985006;28;19929;-71
2023/08/03 13:17:07;;;;;;;;;;;22.40;99.90;;;;;;4984569;28;19960;-72
2023/08/03 13:19:34;;;;;;;;;;;22.30;99.90;;;;;;4984929;28;19922;-71
2023/08/03 13:22:01;;;;;;;;;;;22.20;99.90;;;;;;4984681;28;19925;-72
2023/08/03 13:24:29;;;;;;;;;;;22.30;99.90;;;;;;4996077;28;19921;-72
2023/08/03 13:27:11;;;;;;;;;;;22.30;99.90;;;;;;4990694;28;19950;-71
2023/08/03 13:30:01;;;;;;;;;;;22.50;99.90;;;;;;4985063;28;19953;-72
2023/08/03 13:32:28;;;;;;;;;;;22.70;99.90;;;;;;4985053;28;19922;-72
2023/08/03 13:34:54;;;;;;;;;;;23.10;99.90;;;;;;4984806;28;19989;-70
2023/08/03 13:37:23;;;;;;;;;;;23.40;99.90;;;;;;4984178;28;19929;-71
2023/08/03 13:39:51;;;;;;;;;;;23.50;99.90;;;;;;4984582;28;19957;-71
2023/08/03 13:42:18;;;;;;;;;;;23.60;99.90;;;;;;4984821;28;19997;-72
2023/08/03 13:44:45;;;;;;;;;;;23.80;99.90;;;;;;4991710;28;19922;-72
2023/08/03 13:47:12;;;;;;;;;;;23.80;99.90;;;;;;5003684;28;19928;-72
2023/08/03 13:49:40;;;;;;;;;;;23.70;99.90;;;;;;5003957;28;19997;-71
2023/08/03 13:52:07;;;;;;;;;;;23.70;99.90;;;;;;5003997;28;19929;-72
2023/08/03 13:54:33;;;;;;;;;;;23.70;99.90;;;;;;4996738;28;20273;-72
2023/08/03 13:57:01;;;;;;;;;;;24.00;99.90;;;;;;4995465;28;19932;-72
2023/08/03 13:59:28;;;;;;;;;;;24.10;99.90;;;;;;4984631;28;20180;-71
2023/08/03 14:01:57;;;;;;;;;;;24.20;99.90;;;;;;4982912;28;19997;-73
2023/08/03 14:04:29;;;;;;;;;;;23.90;99.90;;;;;;4990407;28;20217;-72
2023/08/03 14:06:55;;;;;;;;;;;23.60;99.90;;;;;;5003299;28;19929;-72
2023/08/03 14:09:22;;;;;;;;;;;23.60;99.90;;;;;;5003777;28;19984;-72
2023/08/03 14:11:49;;;;;;;;;;;23.60;99.90;;;;;;5003631;28;19928;-72
2023/08/03 14:14:18;;;;;;;;;;;23.50;99.90;;;;;;5003986;28;19928;-72
2023/08/03 14:16:48;;;;;;;;;;;23.30;99.90;;;;;;5004601;28;20029;-71
2023/08/03 14:19:14;;;;;;;;;;;22.70;99.90;;;;;;5007809;28;19922;-71
2023/08/03 14:21:41;;;;;;;;;;;22.30;99.90;;;;;;5007222;28;20260;-71
2023/08/03 14:24:08;;;;;;;;;;;21.70;99.90;;;;;;5004252;28;19922;-71
2023/08/03 14:26:35;;;;;;;;;;;21.20;99.90;;;;;;4994460;28;19964;-71
2023/08/03 14:29:01;;;;;;;;;;;20.80;99.90;;;;;;5007365;28;19988;-71
2023/08/03 14:31:29;;;;;;;;;;;20.60;99.90;;;;;;5005529;28;19981;-70
2023/08/03 14:33:59;;;;;;;;;;;20.50;99.90;;;;;;5006325;28;19984;-73
2023/08/03 14:36:25;;;;;;;;;;;20.50;99.90;;;;;;4995176;28;20231;-70
2023/08/03 14:38:54;;;;;;;;;;;20.80;99.90;;;;;;5007143;28;19985;-69